Time;durP1;ratioP1;P1;durP2;ratioP2;P2;SDS_P1;SDS_P2;PMS_P1;PMS_P2;Temp;Humidity;BMP_temperature;BMP_pressure;BME280_temperature;BME280_humidity;BME280_pressure;Samples;Min_cycle;Max_cycle;Signal;HPM_P1;HPM_P2
2024/02/26 00:01:11;;;;;;;6.80;3.72;;;;;;;1.73;100.00;91514.69;4716919;30;20443;-82
2024/02/26 00:03:37;;;;;;;5.60;3.72;;;;;;;1.72;100.00;91524.25;4713821;30;20160;-80
2024/02/26 00:06:02;;;;;;;5.47;3.88;;;;;;;1.70;100.00;91521.16;4709116;30;20026;-82
2024/02/26 00:08:28;;;;;;;4.60;3.33;;;;;;;1.67;100.00;91517.28;4711517;30;20057;-82
2024/02/26 00:10:54;;;;;;;5.45;3.55;;;;;;;1.63;100.00;91515.47;4740143;30;20048;-82
2024/02/26 00:13:20;;;;;;;4.75;3.35;;;;;;;1.57;100.00;91514.66;4717803;30;20051;-81
2024/02/26 00:15:46;;;;;;;6.47;3.60;;;;;;;1.53;100.00;91505.91;4712336;30;20060;-82
2024/02/26 00:18:11;;;;;;;5.15;3.45;;;;;;;1.49;100.00;91511.78;4715080;30;20041;-79
2024/02/26 00:20:37;;;;;;;5.30;3.55;;;;;;;1.47;100.00;91519.03;4710959;30;20037;-81
2024/02/26 00:23:02;;;;;;;4.80;3.58;;;;;;;1.48;100.00;91512.84;4718005;30;20047;-81
2024/02/26 00:25:28;;;;;;;5.38;3.65;;;;;;;1.42;100.00;91515.41;4709085;30;20513;-80
2024/02/26 00:27:53;;;;;;;5.35;3.40;;;;;;;1.39;100.00;91515.91;4714675;30;20049;-80
2024/02/26 00:30:19;;;;;;;4.93;3.30;;;;;;;1.37;100.00;91510.22;4715441;30;20030;-80
2024/02/26 00:32:44;;;;;;;4.40;3.20;;;;;;;1.30;100.00;91499.38;4719207;30;20044;-80
2024/02/26 00:35:10;;;;;;;5.05;3.05;;;;;;;1.31;100.00;91502.75;4710886;30;20068;-81
2024/02/26 00:37:36;;;;;;;5.65;3.47;;;;;;;1.30;100.00;91503.75;4713684;30;20061;-79
2024/02/26 00:40:01;;;;;;;5.75;3.22;;;;;;;1.30;100.00;91499.38;4720962;30;20045;-82
2024/02/26 00:42:27;;;;;;;4.82;3.35;;;;;;;1.30;100.00;91501.94;4719896;30;20088;-81
2024/02/26 00:44:53;;;;;;;6.03;3.38;;;;;;;1.29;100.00;91502.22;4710464;30;20046;-81
2024/02/26 00:47:18;;;;;;;4.97;3.45;;;;;;;1.29;100.00;91504.81;4717700;30;20041;-81
2024/02/26 00:49:44;;;;;;;4.82;3.20;;;;;;;1.25;100.00;91501.94;4712094;30;20063;-81
2024/02/26 00:52:09;;;;;;;4.70;3.30;;;;;;;1.24;100.00;91495.25;4713219;30;20125;-81
2024/02/26 00:54:35;;;;;;;5.38;3.45;;;;;;;1.22;100.00;91497.28;4715144;30;20080;-81
2024/02/26 00:57:01;;;;;;;5.32;3.60;;;;;;;1.21;100.00;91490.56;4710962;30;20041;-81
2024/02/26 00:59:26;;;;;;;5.45;3.30;;;;;;;1.20;100.00;91489.03;4721668;30;20040;-80
2024/02/26 01:01:52;;;;;;;4.43;3.30;;;;;;;1.22;100.00;91481.84;4712645;30;20433;-81
2024/02/26 01:04:17;;;;;;;5.25;3.50;;;;;;;1.22;100.00;91481.84;4716117;30;20474;-81
2024/02/26 01:06:43;;;;;;;7.20;3.70;;;;;;;1.22;100.00;91481.84;4701211;30;20045;-81
2024/02/26 01:09:10;;;;;;;6.53;3.65;;;;;;;1.25;100.00;91476.16;4744719;30;20053;-81
2024/02/26 01:11:36;;;;;;;4.72;3.30;;;;;;;1.23;100.00;91475.63;4723463;30;20160;-81
2024/02/26 01:14:01;;;;;;;5.50;3.75;;;;;;;1.24;100.00;91466.88;4719964;30;20132;-81
2024/02/26 01:16:29;;;;;;;4.82;3.30;;;;;;;1.25;100.00;91471.00;4712776;30;20063;-81
2024/02/26 01:18:54;;;;;;;4.55;3.13;;;;;;;1.27;100.00;91466.38;4715619;30;20444;-81
2024/02/26 01:21:20;;;;;;;4.65;3.22;;;;;;;1.28;100.00;91465.31;4744283;30;20124;-81
2024/02/26 01:23:45;;;;;;;6.22;3.60;;;;;;;1.27;100.00;91455.28;4714947;30;20060;-81
2024/02/26 01:26:11;;;;;;;5.30;3.47;;;;;;;1.30;100.00;91468.44;4726436;30;20033;-81
2024/02/26 01:28:36;;;;;;;4.82;3.40;;;;;;;1.30;100.00;91468.44;4742372;30;20048;-81
2024/02/26 01:31:05;;;;;;;4.90;3.33;;;;;;;1.29;100.00;91464.31;4728162;30;20311;-80
2024/02/26 01:33:30;;;;;;;4.72;3.28;;;;;;;1.31;100.00;91471.81;4715163;30;20048;-81
2024/02/26 01:35:56;;;;;;;3.95;3.00;;;;;;;1.32;100.00;91460.44;4713986;30;20437;-80
2024/02/26 01:38:21;;;;;;;5.00;2.88;;;;;;;1.30;100.00;91458.13;4716786;30;20098;-81
2024/02/26 01:40:47;;;;;;;4.60;3.03;;;;;;;1.31;100.00;91446.78;4709324;30;20135;-81
2024/02/26 01:43:12;;;;;;;4.28;2.70;;;;;;;1.33;100.00;91446.50;4720927;30;20048;-82
2024/02/26 01:45:38;;;;;;;4.95;2.80;;;;;;;1.33;100.00;91437.00;4718076;30;20132;-81
2024/02/26 01:48:04;;;;;;;4.05;2.63;;;;;;;1.33;100.00;91447.31;4715518;30;20055;-82
2024/02/26 01:50:30;;;;;;;4.25;2.90;;;;;;;1.33;100.00;91442.16;4711119;30;20052;-81
2024/02/26 01:52:57;;;;;;;6.68;2.60;;;;;;;1.32;100.00;91437.25;4716675;30;20047;-81
2024/02/26 01:55:24;;;;;;;4.10;2.63;;;;;;;1.30;100.00;91431.56;4723113;30;20044;-81
2024/02/26 01:57:52;;;;;;;4.00;2.50;;;;;;;1.33;100.00;91434.41;4710739;30;20049;-81
2024/02/26 02:00:19;;;;;;;4.30;2.53;;;;;;;1.28;100.00;91429.22;4724181;30;20091;-81
2024/02/26 02:02:46;;;;;;;4.28;2.60;;;;;;;1.31;100.00;91430.53;4725365;30;20038;-81
2024/02/26 02:05:14;;;;;;;4.15;2.63;;;;;;;1.32;100.00;91435.44;4716141;30;20033;-81
2024/02/26 02:07:40;;;;;;;4.40;2.72;;;;;;;1.30;100.00;91429.75;4715733;30;20041;-81
2024/02/26 02:10:07;;;;;;;3.70;2.47;;;;;;;1.30;100.00;91429.75;4713887;30;20345;-81
2024/02/26 02:12:34;;;;;;;3.67;2.30;;;;;;;1.30;100.00;91427.16;4709838;30;20059;-82
2024/02/26 02:15:00;;;;;;;4.65;2.65;;;;;;;1.28;100.00;91421.50;4714685;30;20437;-81
2024/02/26 02:17:27;;;;;;;4.07;2.38;;;;;;;1.28;100.00;91421.50;4728191;30;20047;-81
2024/02/26 02:19:53;;;;;;;3.40;2.05;;;;;;;1.24;100.00;91423.81;4713920;30;20056;-81
2024/02/26 02:22:18;;;;;;;3.67;2.40;;;;;;;1.20;100.00;91416.84;4711829;30;20037;-81
2024/02/26 02:24:45;;;;;;;3.55;2.30;;;;;;;1.23;100.00;91416.34;4691859;30;20041;-80
2024/02/26 02:27:10;;;;;;;3.92;2.50;;;;;;;1.21;100.00;91413.22;4712977;30;20048;-80
2024/02/26 02:29:37;;;;;;;4.20;2.25;;;;;;;1.18;100.00;91421.47;4711198;30;20049;-81
2024/02/26 02:32:04;;;;;;;3.75;2.40;;;;;;;1.15;100.00;91414.25;4708606;30;20048;-81
2024/02/26 02:34:31;;;;;;;3.42;2.30;;;;;;;1.16;100.00;91408.06;4742366;30;20109;-82
2024/02/26 02:36:56;;;;;;;3.40;2.40;;;;;;;1.14;100.00;91407.56;4715001;30;20057;-81
2024/02/26 02:39:22;;;;;;;3.85;2.33;;;;;;;1.10;100.00;91406.50;4714015;30;20045;-81
2024/02/26 02:41:47;;;;;;;3.47;2.20;;;;;;;1.09;100.00;91402.41;4697227;30;20418;-81
2024/02/26 02:44:13;;;;;;;3.00;2.10;;;;;;;1.08;100.00;91405.97;4713802;30;20052;-81
2024/02/26 02:46:39;;;;;;;3.63;2.00;;;;;;;1.06;100.00;91405.47;4715070;30;20040;-81
2024/02/26 02:49:14;;;;;;;3.53;2.20;;;;;;;1.03;100.00;91396.44;4715377;30;20051;-81
2024/02/26 02:51:39;;;;;;;3.30;2.10;;;;;;;1.07;100.00;91397.47;4713327;30;20094;-81
2024/02/26 02:54:05;;;;;;;3.25;2.17;;;;;;;1.04;100.00;91392.84;4713674;30;20053;-81
2024/02/26 02:56:30;;;;;;;3.70;2.05;;;;;;;1.01;100.00;91394.13;4713381;30;20033;-81
2024/02/26 02:58:56;;;;;;;2.78;1.90;;;;;;;0.96;100.00;91395.91;4726340;30;20269;-81
2024/02/26 03:01:22;;;;;;;3.28;1.90;;;;;;;0.95;100.00;91395.13;4708437;30;20437;-81
2024/02/26 03:03:47;;;;;;;3.40;2.03;;;;;;;0.91;100.00;91401.81;4711187;30;20029;-81
2024/02/26 03:06:13;;;;;;;3.80;2.20;;;;;;;0.88;100.00;91394.59;4711871;30;20049;-81
2024/02/26 03:08:39;;;;;;;3.13;2.10;;;;;;;0.93;100.00;91406.72;4719912;30;20072;-81
2024/02/26 03:11:05;;;;;;;3.13;2.08;;;;;;;0.87;100.00;91397.44;4733924;30;20114;-82
2024/02/26 03:13:31;;;;;;;3.10;1.95;;;;;;;0.93;100.00;91401.59;4733751;30;20075;-81
2024/02/26 03:15:57;;;;;;;2.97;1.90;;;;;;;0.91;100.00;91399.25;4733544;30;20068;-81
2024/02/26 03:18:22;;;;;;;3.30;2.10;;;;;;;0.88;100.00;91389.47;4729598;30;20484;-81
2024/02/26 03:20:49;;;;;;;3.08;1.90;;;;;;;0.88;100.00;91394.59;4741336;30;20080;-81
2024/02/26 03:23:16;;;;;;;3.45;1.90;;;;;;;0.87;100.00;91398.19;4734467;30;20508;-80
2024/02/26 03:25:46;;;;;;;3.03;1.95;;;;;;;0.86;100.00;91391.50;4727822;30;20033;-81
2024/02/26 03:28:12;;;;;;;2.78;1.98;;;;;;;0.83;100.00;91392.78;4747233;30;20051;-80
2024/02/26 03:30:38;;;;;;;3.78;2.17;;;;;;;0.80;100.00;91393.28;4733906;30;20048;-81
2024/02/26 03:33:03;;;;;;;3.22;2.10;;;;;;;0.79;100.00;91386.59;4737653;30;20044;-81
2024/02/26 03:35:29;;;;;;;2.35;1.63;;;;;;;0.79;100.00;91380.66;4736086;30;20041;-81
2024/02/26 03:37:54;;;;;;;3.38;2.13;;;;;;;0.78;100.00;91374.72;4730824;30;20566;-82
2024/02/26 03:40:20;;;;;;;2.78;1.80;;;;;;;0.75;100.00;91375.25;4734621;30;20060;-81
2024/02/26 03:42:46;;;;;;;2.92;1.88;;;;;;;0.70;100.00;91374.44;4733423;30;20040;-81
2024/02/26 03:45:11;;;;;;;2.83;1.80;;;;;;;0.67;100.00;91372.38;4732270;30;20354;-81
2024/02/26 03:47:40;;;;;;;2.83;1.90;;;;;;;0.62;100.00;91370.56;4735782;30;20109;-81
2024/02/26 03:50:06;;;;;;;2.97;1.75;;;;;;;0.61;100.00;91369.78;4729956;30;20048;-81
2024/02/26 03:52:33;;;;;;;2.28;1.60;;;;;;;0.60;100.00;91359.72;4739027;30;20485;-81
2024/02/26 03:54:58;;;;;;;2.88;1.83;;;;;;;0.65;100.00;91369.28;4730761;30;20168;-81
2024/02/26 03:57:24;;;;;;;2.50;1.70;;;;;;;0.66;100.00;91361.31;4730670;30;20104;-81
2024/02/26 03:59:49;;;;;;;2.72;1.73;;;;;;;0.68;100.00;91366.97;4730690;30;20044;-81
2024/02/26 04:02:16;;;;;;;2.65;1.65;;;;;;;0.70;100.00;91362.34;4744665;30;20049;-80
2024/02/26 04:04:41;;;;;;;2.97;1.80;;;;;;;0.70;100.00;91357.19;4728336;30;20036;-81
2024/02/26 04:07:07;;;;;;;2.88;1.80;;;;;;;0.74;100.00;91350.50;4730548;30;20056;-81
2024/02/26 04:09:33;;;;;;;2.05;1.58;;;;;;;0.76;100.00;91350.25;4727824;30;20063;-80
2024/02/26 04:11:58;;;;;;;2.20;1.60;;;;;;;0.75;100.00;91351.28;4729352;30;20057;-80
2024/02/26 04:14:24;;;;;;;2.30;1.60;;;;;;;0.77;100.00;91356.97;4731122;30;20064;-81
2024/02/26 04:16:52;;;;;;;2.35;1.60;;;;;;;0.70;100.00;91344.31;4733479;30;20135;-81
2024/02/26 04:19:18;;;;;;;2.78;1.70;;;;;;;0.78;100.00;91356.69;4732326;30;20044;-81
2024/02/26 04:21:43;;;;;;;2.22;1.50;;;;;;;0.80;100.00;91356.44;4737599;30;20406;-82
2024/02/26 04:24:09;;;;;;;2.78;1.60;;;;;;;0.80;100.00;91356.44;4729768;30;20048;-81
2024/02/26 04:26:34;;;;;;;2.53;1.70;;;;;;;0.79;100.00;91354.91;4734354;30;20109;-81
2024/02/26 04:29:00;;;;;;;2.47;1.75;;;;;;;0.82;100.00;91349.25;4729556;30;20115;-81
2024/02/26 04:31:26;;;;;;;3.22;1.95;;;;;;;0.81;100.00;91350.25;4729532;30;20084;-81
2024/02/26 04:33:52;;;;;;;3.05;1.83;;;;;;;0.84;100.00;91354.91;4729461;30;20106;-81
2024/02/26 04:36:17;;;;;;;3.22;1.90;;;;;;;0.82;100.00;91351.81;4733415;30;20094;-81
2024/02/26 04:38:43;;;;;;;2.78;1.80;;;;;;;0.83;100.00;91345.63;4739294;30;20055;-80
2024/02/26 04:41:09;;;;;;;3.17;1.80;;;;;;;0.82;100.00;91351.81;4730590;30;20378;-81
2024/02/26 04:43:41;;;;;;;4.20;2.38;;;;;;;0.83;100.00;91348.19;4733109;30;20154;-80
2024/02/26 04:46:09;;;;;;;5.07;3.13;;;;;;;0.82;100.00;91344.09;4734102;30;20533;-80
2024/02/26 04:48:41;;;;;;;4.85;3.35;;;;;;;0.82;100.00;91344.09;4733148;30;20516;-81
2024/02/26 04:51:07;;;;;;;;;;;;;;;0.80;100.00;91349.47;4734823;30;20040;-81
2024/02/26 04:53:33;;;;;;;2.80;1.92;;;;;;;0.80;100.00;91344.34;4733914;30;20327;-81
2024/02/26 04:55:58;;;;;;;3.28;1.95;;;;;;;0.79;100.00;91349.75;4734097;30;20047;-81
2024/02/26 04:58:24;;;;;;;3.78;2.67;;;;;;;0.69;100.00;91347.13;4734752;30;20143;-82
2024/02/26 05:00:50;;;;;;;3.35;1.83;;;;;;;0.67;100.00;91331.94;4747880;30;20048;-82
2024/02/26 05:03:15;;;;;;;3.13;1.95;;;;;;;0.88;100.00;91345.66;4728713;30;20032;-81
2024/02/26 05:05:44;;;;;;;2.05;1.45;;;;;;;0.77;100.00;91342.28;4733227;30;20037;-81
2024/02/26 05:08:10;;;;;;;2.60;1.73;;;;;;;0.73;100.00;91353.34;4733117;30;20522;-81
2024/02/26 05:10:40;;;;;;;3.10;1.90;;;;;;;0.58;100.00;91336.78;4734469;30;20060;-82
2024/02/26 05:13:07;;;;;;;2.78;1.83;;;;;;;0.60;100.00;91344.28;4733551;30;20471;-81
2024/02/26 05:15:32;;;;;;;3.47;1.70;;;;;;;0.65;100.00;91358.97;4732361;30;20032;-81
2024/02/26 05:17:58;;;;;;;3.08;1.90;;;;;;;0.64;100.00;91360.00;4738278;30;20052;-81
2024/02/26 05:20:24;;;;;;;2.78;1.90;;;;;;;0.67;100.00;91360.25;4728564;30;20775;-80
2024/02/26 05:22:50;;;;;;;3.15;1.75;;;;;;;0.73;100.00;91361.84;4733981;30;20057;-81
2024/02/26 05:25:16;;;;;;;4.05;2.10;;;;;;;0.64;100.00;91363.34;4737882;30;20402;-80
2024/02/26 05:27:43;;;;;;;3.58;2.22;;;;;;;0.56;100.00;91362.06;4733705;30;20121;-81
2024/02/26 05:30:10;;;;;;;3.78;2.47;;;;;;;0.57;100.00;91367.97;4731812;30;20042;-81
2024/02/26 05:32:35;;;;;;;3.97;2.67;;;;;;;0.56;100.00;91367.19;4733049;30;20036;-81
2024/02/26 05:35:03;;;;;;;4.15;2.63;;;;;;;0.53;100.00;91365.13;4734902;30;20102;-81
2024/02/26 05:37:30;;;;;;;3.40;2.20;;;;;;;0.54;100.00;91368.47;4746638;30;20045;-81
2024/02/26 05:39:55;;;;;;;3.40;2.20;;;;;;;0.52;100.00;91365.34;4741448;30;20136;-82
2024/02/26 05:42:21;;;;;;;3.35;2.00;;;;;;;0.51;100.00;91363.81;4747391;30;20119;-82
2024/02/26 05:44:46;;;;;;;3.30;2.00;;;;;;;0.51;100.00;91364.59;4733397;30;20037;-81
2024/02/26 05:47:13;;;;;;;3.90;2.30;;;;;;;0.47;100.00;91360.97;4719362;30;20029;-80
2024/02/26 05:49:39;;;;;;;3.30;2.05;;;;;;;0.46;100.00;91358.66;4728796;30;20120;-80
2024/02/26 05:52:05;;;;;;;11.35;6.60;;;;;;;0.48;100.00;91370.25;4735419;30;20072;-82
2024/02/26 05:54:31;;;;;;;10.43;6.03;;;;;;;0.47;100.00;91366.13;4734036;30;20048;-79
2024/02/26 05:56:57;;;;;;;6.70;3.50;;;;;;;0.46;100.00;91358.66;4729713;30;20044;-80
2024/02/26 05:59:23;;;;;;;3.45;2.17;;;;;;;0.45;100.00;91375.91;4728586;30;20140;-79
2024/02/26 06:01:49;;;;;;;7.70;4.25;;;;;;;0.47;100.00;91366.13;4730702;30;20128;-80
2024/02/26 06:04:15;;;;;;;3.38;2.03;;;;;;;0.47;100.00;91368.69;4731259;30;20056;-80
2024/02/26 06:06:40;;;;;;;3.17;2.00;;;;;;;0.47;100.00;91365.34;4716411;30;20414;-79
2024/02/26 06:09:06;;;;;;;3.10;1.90;;;;;;;0.46;100.00;91354.28;4730128;30;20044;-80
2024/02/26 06:11:31;;;;;;;2.70;1.80;;;;;;;0.50;100.00;91357.13;4728067;30;20041;-80
2024/02/26 06:13:57;;;;;;;3.13;1.90;;;;;;;0.52;100.00;91360.22;4728674;30;20057;-78
2024/02/26 06:16:22;;;;;;;2.97;1.70;;;;;;;0.52;100.00;91368.72;4714775;30;20040;-79
2024/02/26 06:18:48;;;;;;;3.40;2.28;;;;;;;0.53;100.00;91372.84;4729702;30;20516;-79
2024/02/26 06:21:13;;;;;;;3.22;2.20;;;;;;;0.49;100.00;91358.91;4729153;30;20055;-78
2024/02/26 06:23:40;;;;;;;3.00;2.00;;;;;;;0.49;100.00;91358.91;4732634;30;20387;-79
2024/02/26 06:26:06;;;;;;;3.45;2.40;;;;;;;0.51;100.00;91363.81;4719760;30;20168;-79
2024/02/26 06:28:33;;;;;;;3.40;2.20;;;;;;;0.50;100.00;91357.91;4730223;30;20084;-79
2024/02/26 06:30:59;;;;;;;3.20;2.05;;;;;;;0.49;100.00;91358.91;4723252;30;20044;-79
2024/02/26 06:33:25;;;;;;;2.95;2.00;;;;;;;0.53;100.00;91367.69;4731869;30;20093;-79
2024/02/26 06:35:50;;;;;;;3.13;2.10;;;;;;;0.50;100.00;91360.47;4730310;30;20037;-78
2024/02/26 06:38:17;;;;;;;2.80;1.80;;;;;;;0.50;100.00;91360.47;4731566;30;20055;-78
2024/02/26 06:40:44;;;;;;;2.88;1.90;;;;;;;0.53;100.00;91375.41;4730667;30;20486;-79
2024/02/26 06:43:09;;;;;;;3.58;2.20;;;;;;;0.54;100.00;91379.56;4729308;30;20514;-79
2024/02/26 06:45:35;;;;;;;3.05;1.83;;;;;;;0.54;100.00;91371.81;4736632;30;20051;-79
2024/02/26 06:48:01;;;;;;;3.40;1.98;;;;;;;0.56;100.00;91381.84;4731992;30;20051;-79
2024/02/26 06:50:26;;;;;;;3.75;2.15;;;;;;;0.56;100.00;91382.66;4730985;30;20115;-79
2024/02/26 06:52:52;;;;;;;4.07;2.03;;;;;;;0.56;100.00;91381.84;4736619;30;20420;-79
2024/02/26 06:55:18;;;;;;;5.90;3.60;;;;;;;0.58;100.00;91383.16;4737107;30;20051;-81
2024/02/26 06:57:43;;;;;;;5.10;3.00;;;;;;;0.57;100.00;91389.34;4733904;30;20365;-78
2024/02/26 07:00:15;;;;;;;3.15;2.03;;;;;;;0.58;100.00;91385.72;4739367;30;20103;-81
2024/02/26 07:02:41;;;;;;;3.20;2.00;;;;;;;0.57;100.00;91383.41;4752764;30;20040;-81
2024/02/26 07:05:07;;;;;;;2.72;1.80;;;;;;;0.49;100.00;91371.78;4740804;30;20044;-81
2024/02/26 07:07:32;;;;;;;2.55;1.70;;;;;;;0.55;100.00;91386.25;4738533;30;20041;-80
2024/02/26 07:09:58;;;;;;;3.20;1.63;;;;;;;0.53;100.00;91382.38;4742323;30;20176;-80
2024/02/26 07:12:33;;;;;;;2.50;1.58;;;;;;;0.58;100.00;91396.03;4742054;30;20051;-80
2024/02/26 07:14:58;;;;;;;2.45;1.60;;;;;;;0.51;100.00;91398.06;4736092;30;20376;-80
2024/02/26 07:17:24;;;;;;;2.30;1.50;;;;;;;0.51;100.00;91395.50;4734321;30;20044;-80
2024/02/26 07:19:50;;;;;;;2.17;1.50;;;;;;;0.49;100.00;91400.13;4740546;30;20052;-81
2024/02/26 07:22:15;;;;;;;2.10;1.50;;;;;;;0.47;100.00;91391.09;4737677;30;20041;-81
2024/02/26 07:24:41;;;;;;;2.17;1.50;;;;;;;0.51;100.00;91394.72;4735538;30;20063;-81
2024/02/26 07:27:07;;;;;;;1.30;1.20;;;;;;;0.53;100.00;91398.59;4734513;30;20041;-81
2024/02/26 07:29:33;;;;;;;1.55;1.27;;;;;;;0.54;100.00;91397.59;4737646;30;20056;-82
2024/02/26 07:31:58;;;;;;;0.85;0.85;;;;;;;0.54;100.00;91395.00;4734998;30;20047;-80
2024/02/26 07:34:28;;;;;;;1.55;1.25;;;;;;;0.55;100.00;91393.19;4724867;30;20040;-80
2024/02/26 07:36:55;;;;;;;1.70;1.33;;;;;;;0.57;100.00;91404.03;4716587;30;20494;-81
2024/02/26 07:39:21;;;;;;;1.20;1.10;;;;;;;0.51;100.00;91389.56;4736354;30;20036;-81
2024/02/26 07:41:49;;;;;;;1.20;1.10;;;;;;;0.62;100.00;91399.66;4735569;30;20036;-81
2024/02/26 07:44:15;;;;;;;1.88;1.38;;;;;;;0.56;100.00;91392.97;4733180;30;20092;-81
2024/02/26 07:46:41;;;;;;;1.55;1.20;;;;;;;0.64;100.00;91399.41;4738251;30;20067;-82
2024/02/26 07:49:07;;;;;;;2.03;1.30;;;;;;;0.65;100.00;91402.75;4726447;30;20516;-81
2024/02/26 07:51:33;;;;;;;1.90;1.33;;;;;;;0.74;100.00;91398.66;4747799;30;20047;-81
2024/02/26 07:53:58;;;;;;;2.15;1.40;;;;;;;0.72;100.00;91400.72;4718556;30;20033;-80
2024/02/26 07:56:24;;;;;;;2.35;1.33;;;;;;;0.73;100.00;91418.50;4735203;30;20052;-80
2024/02/26 07:58:54;;;;;;;1.70;1.30;;;;;;;0.73;100.00;91412.59;4734995;30;20562;-81
2024/02/26 08:01:20;;;;;;;2.00;1.40;;;;;;;0.73;100.00;91415.16;4733186;30;20071;-81
2024/02/26 08:03:46;;;;;;;1.98;1.38;;;;;;;0.72;100.00;91416.19;4735817;30;20037;-80
2024/02/26 08:06:17;;;;;;;1.70;1.20;;;;;;;0.69;100.00;91408.97;4736936;30;20041;-80
2024/02/26 08:08:43;;;;;;;2.42;1.45;;;;;;;0.67;100.00;91413.59;4751205;30;20136;-80
2024/02/26 08:11:14;;;;;;;1.77;1.35;;;;;;;0.65;100.00;91408.69;4740612;30;20044;-80
2024/02/26 08:13:41;;;;;;;2.17;1.42;;;;;;;0.66;100.00;91397.38;4735451;30;20052;-80
2024/02/26 08:16:07;;;;;;;2.63;1.60;;;;;;;0.69;100.00;91385.78;4737402;30;20045;-80
2024/02/26 08:18:33;;;;;;;2.05;1.50;;;;;;;0.66;100.00;91378.56;4742724;30;20048;-80
2024/02/26 08:21:04;;;;;;;2.42;1.70;;;;;;;0.71;100.00;91381.91;4742486;30;20501;-80
2024/02/26 08:23:31;;;;;;;2.33;1.50;;;;;;;0.71;100.00;91389.66;4749752;30;20067;-80
2024/02/26 08:25:56;;;;;;;1.58;1.20;;;;;;;0.73;100.00;91386.81;4738430;30;20109;-82
2024/02/26 08:28:23;;;;;;;1.70;1.30;;;;;;;0.63;100.00;91366.94;4743857;30;20052;-81
2024/02/26 08:30:48;;;;;;;1.23;1.10;;;;;;;0.72;100.00;91377.53;4739945;30;20090;-81
2024/02/26 08:33:14;;;;;;;1.63;1.10;;;;;;;0.74;100.00;91383.22;4740496;30;20044;-81
2024/02/26 08:35:39;;;;;;;1.23;1.13;;;;;;;0.78;100.00;91386.84;4746927;30;20040;-80
2024/02/26 08:38:05;;;;;;;1.50;1.30;;;;;;;0.91;100.00;91388.94;4746849;30;20048;-80
2024/02/26 08:40:33;;;;;;;1.38;1.27;;;;;;;0.94;100.00;91403.88;4764498;30;20128;-80
2024/02/26 08:42:58;;;;;;;1.33;1.10;;;;;;;0.88;100.00;91401.53;4740059;30;20044;-81
2024/02/26 08:45:24;;;;;;;1.40;1.15;;;;;;;0.85;100.00;91410.56;4744238;30;20367;-84
2024/02/26 08:47:50;;;;;;;1.48;1.10;;;;;;;0.88;100.00;91417.00;4743441;30;20052;-83
2024/02/26 08:50:15;;;;;;;1.45;1.30;;;;;;;1.00;100.00;91412.41;4737285;30;20040;-82
2024/02/26 08:52:41;;;;;;;2.08;1.33;;;;;;;1.03;100.00;91417.06;4750889;30;20553;-81
2024/02/26 08:55:59;;;;;;;2.08;1.33;;;;;;;0.81;100.00;91417.25;4753258;30;20063;-78
2024/02/26 08:58:27;;;;;;;29.70;2.13;;;;;;;0.67;100.00;91403.28;4745700;30;20052;-81
2024/02/26 09:00:55;;;;;;;2.78;1.63;;;;;;;0.64;100.00;91409.72;4725616;30;20040;-81
2024/02/26 09:03:21;;;;;;;1.98;1.40;;;;;;;0.60;100.00;91409.44;4742606;30;20090;-81
2024/02/26 09:05:52;;;;;;;2.17;1.40;;;;;;;0.57;100.00;91414.31;4763902;30;20040;-81
2024/02/26 09:08:41;;;;;;;2.35;1.40;;;;;;;0.54;100.00;91419.97;4733709;30;20072;-80
2024/02/26 09:11:07;;;;;;;2.00;1.40;;;;;;;0.55;100.00;91417.16;4737911;30;20123;-80
2024/02/26 09:14:11;;;;;;;1.60;1.27;;;;;;;0.43;100.00;91421.72;4737287;30;20600;-78
2024/02/26 09:16:37;;;;;;;1.85;1.30;;;;;;;0.31;100.00;91423.72;4740818;30;20112;-79
2024/02/26 09:19:04;;;;;;;1.83;1.30;;;;;;;0.31;100.00;91426.28;4721304;30;20465;-79
2024/02/26 09:21:30;;;;;;;1.55;1.27;;;;;;;0.37;100.00;91438.16;4737116;30;21000;-80
2024/02/26 09:23:56;;;;;;;1.90;1.40;;;;;;;0.35;100.00;91435.06;4735478;30;20045;-79
2024/02/26 09:26:21;;;;;;;2.38;1.55;;;;;;;0.36;100.00;91421.16;4735738;30;20041;-80
2024/02/26 09:28:47;;;;;;;4.65;2.45;;;;;;;0.41;100.00;91431.50;4736034;30;20044;-79
2024/02/26 09:31:17;;;;;;;9.15;4.18;;;;;;;0.44;100.00;91433.56;4737050;30;20048;-78
2024/02/26 09:33:45;;;;;;;4.20;2.10;;;;;;;0.44;100.00;91425.84;4738114;30;20049;-78
2024/02/26 09:36:11;;;;;;;2.78;1.65;;;;;;;0.46;100.00;91428.19;4740084;30;20037;-78
2024/02/26 09:38:39;;;;;;;2.17;1.52;;;;;;;0.48;100.00;91439.00;4738014;30;20045;-78
2024/02/26 09:41:05;;;;;;;3.72;1.98;;;;;;;0.45;100.00;91437.72;4735855;30;20044;-78
2024/02/26 09:43:42;;;;;;;3.97;2.08;;;;;;;0.48;100.00;91434.63;4726469;30;20128;-78
2024/02/26 09:46:08;;;;;;;4.97;2.90;;;;;;;0.51;100.00;91436.69;4734181;30;20033;-78
2024/02/26 09:48:35;;;;;;;3.45;1.95;;;;;;;0.50;100.00;91435.16;4719050;30;20891;-78
2024/02/26 09:51:02;;;;;;;2.72;1.77;;;;;;;0.53;100.00;91433.88;4733427;30;20047;-78
2024/02/26 09:53:31;;;;;;;2.45;1.42;;;;;;;0.52;100.00;91425.38;4734547;30;20036;-78
2024/02/26 09:55:57;;;;;;;3.08;1.63;;;;;;;0.52;100.00;91417.66;4729040;30;20044;-77
2024/02/26 09:58:24;;;;;;;3.38;2.10;;;;;;;0.54;100.00;91415.59;4735661;30;20044;-78
2024/02/26 10:00:56;;;;;;;4.22;2.10;;;;;;;0.47;100.00;91415.03;4734936;30;20049;-78
2024/02/26 10:03:30;;;;;;;2.15;1.40;;;;;;;0.50;100.00;91414.56;4732138;30;20569;-78
2024/02/26 10:05:57;;;;;;;2.50;1.50;;;;;;;0.48;100.00;91411.44;4736719;30;20036;-77
2024/02/26 10:08:23;;;;;;;3.38;1.50;;;;;;;0.52;100.00;91409.94;4730779;30;20164;-77
2024/02/26 10:10:50;;;;;;;11.15;4.18;;;;;;;0.52;100.00;91409.94;4735287;30;20051;-78
2024/02/26 10:13:16;;;;;;;47.83;14.93;;;;;;;0.39;100.00;91410.38;4734837;30;20037;-78
2024/02/26 10:15:41;;;;;;;47.60;23.90;;;;;;;0.44;100.00;91409.63;4733935;30;20067;-77
2024/02/26 10:18:07;;;;;;;85.65;18.70;;;;;;;0.36;100.00;91409.09;4763050;30;20516;-78
2024/02/26 10:20:33;;;;;;;170.38;32.47;;;;;;;0.29;100.00;91412.88;4738245;30;20044;-78
2024/02/26 10:23:02;;;;;;;83.35;5.22;;;;;;;0.23;100.00;91404.38;4733716;30;20048;-77
2024/02/26 10:25:28;;;;;;;16.95;10.27;;;;;;;0.20;100.00;91404.84;4732079;30;20052;-77
2024/02/26 10:27:53;;;;;;;44.88;7.47;;;;;;;0.25;100.00;91410.06;4734674;30;20029;-77
2024/02/26 10:30:21;;;;;;;93.75;5.57;;;;;;;0.22;100.00;91404.63;4733260;30;20053;-77
2024/02/26 10:32:47;;;;;;;225.93;9.07;;;;;;;0.12;100.00;91402.78;4733330;30;20486;-77
2024/02/26 10:35:14;;;;;;;299.10;13.80;;;;;;;0.11;100.00;91396.84;4762265;30;20421;-78
2024/02/26 10:37:41;;;;;;;335.25;10.93;;;;;;;0.10;100.00;91390.16;4733953;30;20063;-77
2024/02/26 10:40:10;;;;;;;93.40;2.88;;;;;;;0.26;100.00;91396.16;4747436;30;20083;-77
2024/02/26 10:42:36;;;;;;;114.50;3.03;;;;;;;0.32;100.00;91402.88;4731595;30;20035;-77
2024/02/26 10:45:02;;;;;;;127.38;4.22;;;;;;;0.37;100.00;91410.63;4733579;30;20123;-77
2024/02/26 10:47:29;;;;;;;419.75;9.43;;;;;;;0.27;100.00;91414.94;4733063;30;20037;-78
2024/02/26 10:49:56;;;;;;;439.52;11.75;;;;;;;0.13;100.00;91410.22;4717270;30;20069;-77
2024/02/26 10:52:25;;;;;;;395.60;9.60;;;;;;;0.08;100.00;91407.63;4732629;30;20040;-78
2024/02/26 10:54:57;;;;;;;75.38;4.13;;;;;;;0.07;100.00;91400.94;4737887;30;20139;-77
2024/02/26 10:57:24;;;;;;;15.88;2.00;;;;;;;0.14;100.00;91416.16;4733665;30;20052;-77
2024/02/26 10:59:53;;;;;;;161.18;4.15;;;;;;;0.17;100.00;91403.56;4733808;30;20045;-77
2024/02/26 11:02:20;;;;;;;3.75;1.50;;;;;;;0.09;100.00;91386.03;4733631;30;20407;-77
2024/02/26 11:04:46;;;;;;;3.60;1.50;;;;;;;0.26;100.00;91403.88;4733207;30;20028;-77
2024/02/26 11:07:13;;;;;;;3.50;2.38;;;;;;;0.36;100.00;91398.00;4731594;30;20036;-78
2024/02/26 11:09:44;;;;;;;4.45;2.67;;;;;;;0.45;100.00;91393.94;4732442;30;20068;-78
2024/02/26 11:12:12;;;;;;;2.60;1.57;;;;;;;0.53;100.00;91393.44;4730004;30;20048;-78
2024/02/26 11:14:40;;;;;;;2.28;1.50;;;;;;;0.59;100.00;91392.44;4729946;30;20066;-78
2024/02/26 11:17:08;;;;;;;1.98;1.40;;;;;;;0.63;100.00;91379.81;4733083;30;20624;-78
2024/02/26 11:19:36;;;;;;;2.63;1.60;;;;;;;0.69;100.00;91380.63;4732788;30;20494;-77
2024/02/26 11:22:02;;;;;;;1.88;1.17;;;;;;;0.73;100.00;91386.81;4733034;30;20064;-78
2024/02/26 11:24:28;;;;;;;2.92;1.58;;;;;;;0.75;100.00;91382.19;4739968;30;20216;-78
2024/02/26 11:27:00;;;;;;;1.30;1.02;;;;;;;0.79;100.00;91375.53;4734503;30;20460;-78
2024/02/26 11:29:49;;;;;;;1.15;1.05;;;;;;;0.83;100.00;91367.03;4733405;30;20055;-77